Latest Weather Observations for Gabo Island

IDV60801

Issued at 10:42 am EST Wednesday 28 September 2022 (issued every 10 minutes, with the page automatically refreshed every 10 minutes)

About weather observations | Map of weather stations | Latest weather observations for VIC | Other Formats
Station Details ID: 084016 Name: GABO ISLAND LIGHTHOUSE Lat: -37.57 Lon: 149.92 Height: 15.0 m
Data from the previous 72 hours. | See also: Recent months at Gabo Island
Date/Time
EST
Temp
°C
App
Temp
°C
Dew
Point
°C
Rel
Hum
%
Delta-T
°C
Wind Press
QNH
hPa
Press
MSL
hPa
Rain since
9am
mm
Dir  Spd
km/h
Gust
km/h
Spd
kts
Gust
kts
28/10:30am 15.8 17.1 14.2 90 0.9 CALM 0 6 0 3 1014.4 1014.4 0.0
28/10:00am 15.6 16.1 14.0 90 0.9 E 4 6 2 3 1014.6 1014.6 0.0
28/09:30am 15.6 17.0 14.5 93 0.6 CALM 0 0 0 0 1014.4 1014.4 0.0
28/09:00am 15.3 15.0 14.5 95 0.5 NNW 9 11 5 6 1014.4 1014.4 2.8
28/08:30am 14.8 14.1 14.2 96 0.3 NNE 11 13 6 7 1014.2 1014.2 2.8
28/08:00am 14.3 12.2 13.5 95 0.4 NNE 17 19 9 10 1013.7 1013.7 2.6
28/07:30am 14.5 11.9 13.9 96 0.3 NE 20 24 11 13 1013.4 1013.4 2.4
28/07:00am 14.9 11.8 14.4 97 0.3 ENE 24 28 13 15 1013.2 1013.2 2.0
28/06:30am 14.7 14.8 14.4 98 0.2 NE 7 11 4 6 1012.9 1012.9 1.8
28/06:00am 14.7 14.4 14.4 98 0.2 SW 9 11 5 6 1012.3 1012.3 1.4
28/05:30am 14.5 13.4 14.2 98 0.2 WNW 13 17 7 9 1012.4 1012.4 0.6
28/05:00am 14.3 12.7 14.0 98 0.2 WNW 15 20 8 11 1012.2 1012.2 0.6
28/04:30am 14.2 12.6 13.9 98 0.2 WNW 15 20 8 11 1012.1 1012.1 0.4
28/04:00am 14.1 12.4 13.6 97 0.3 WNW 15 19 8 10 1011.7 1011.7 0.4
28/03:30am 14.1 12.0 13.6 97 0.3 WNW 17 19 9 10 1011.7 1011.7 0.4
28/03:00am 13.9 12.5 13.4 97 0.3 WNW 13 15 7 8 1011.7 1011.7 0.4
28/02:30am 14.1 13.2 13.6 97 0.3 WNW 11 15 6 8 1012.1 1012.1 0.4
28/02:00am 14.3 13.0 13.8 97 0.3 NW 13 17 7 9 1012.4 1012.4 0.4
28/01:30am 13.7 11.8 13.1 96 0.3 W 15 15 8 8 1012.2 1012.2 0.4
28/01:00am 14.0 12.6 13.4 96 0.3 WNW 13 17 7 9 1012.3 1012.3 0.4
28/12:30am 14.3 13.4 13.7 96 0.3 WNW 11 13 6 7 1012.8 1012.8 0.4
28/12:00am 14.5 14.9 13.7 95 0.4 SSW 4 13 2 7 1012.7 1012.7 0.4
 
Date/Time
EST
Temp
°C
App
Temp
°C
Dew
Point
°C
Rel
Hum
%
Delta-T
°C
Wind Press
QNH
hPa
Press
MSL
hPa
Rain since
9am
mm
Dir  Spd
km/h
Gust
km/h
Spd
kts
Gust
kts
27/11:30pm 15.1 16.1 14.3 95 0.5 SSE 2 7 1 4 1012.6 1012.6 0.4
27/11:00pm 14.6 14.1 13.8 95 0.4 SSW 9 11 5 6 1012.3 1012.3 0.4
27/10:30pm 14.9 15.4 14.1 95 0.5 NW 4 9 2 5 1012.5 1012.5 0.4
27/10:00pm 15.2 15.4 14.2 94 0.6 NNW 6 11 3 6 1012.5 1012.5 0.4
27/09:30pm 15.6 14.6 14.6 94 0.6 E 13 17 7 9 1012.6 1012.6 0.4
27/09:00pm 15.5 14.5 14.5 94 0.6 E 13 15 7 8 1012.6 1012.6 0.4
27/08:30pm 15.3 16.3 14.2 93 0.6 E 2 7 1 4 1012.7 1012.7 0.4
27/08:00pm 15.4 16.8 14.3 93 0.6 CALM 0 6 0 3 1012.6 1012.6 0.4
27/07:30pm 15.6 14.6 14.5 93 0.6 ENE 13 15 7 8 1012.4 1012.4 0.4
27/07:00pm 15.7 14.3 14.6 93 0.6 E 15 19 8 10 1012.1 1012.1 0.4
27/06:30pm 15.6 13.7 14.3 92 0.7 E 17 19 9 10 1011.9 1011.9 0.4
27/06:00pm 15.5 13.9 14.0 91 0.8 ENE 15 17 8 9 1011.6 1011.6 0.4
27/05:30pm 15.6 13.6 14.0 90 0.9 ENE 17 17 9 9 1011.4 1011.4 0.4
27/05:00pm 15.7 14.2 14.1 90 0.9 ENE 15 19 8 10 1011.1 1011.1 0.4
27/04:30pm 16.0 14.1 14.2 89 1.0 NE 17 20 9 11 1010.9 1010.9 0.4
27/04:00pm 15.8 14.7 14.2 90 0.9 ENE 13 17 7 9 1010.9 1010.9 0.4
27/03:30pm 16.0 15.6 14.2 89 1.0 E 9 11 5 6 1010.7 1010.7 0.4
27/03:00pm 15.8 15.4 14.2 90 0.9 ESE 9 13 5 7 1010.9 1010.9 0.4
27/02:30pm 15.6 15.3 14.3 92 0.7 E 9 11 5 6 1011.0 1011.0 0.4
27/02:00pm 15.3 14.6 14.2 93 0.6 ENE 11 13 6 7 1011.1 1011.1 0.4
27/01:30pm 15.3 13.8 14.2 93 0.6 NE 15 20 8 11 1011.3 1011.3 0.4
27/01:00pm 15.8 14.3 14.2 90 0.9 ENE 15 17 8 9 1011.6 1011.6 0.2
27/12:30pm 15.8 14.0 14.5 92 0.7 NE 17 22 9 12 1011.9 1011.9 0.2
27/12:00pm 15.8 14.4 14.5 92 0.7 NE 15 17 8 9 1012.2 1012.2 0.2
27/11:30am 16.0 14.4 14.9 93 0.6 NE 17 22 9 12 1012.4 1012.4 0.2
27/11:00am 15.7 14.7 14.6 93 0.6 NE 13 15 7 8 1012.6 1012.6 0.2
27/10:30am 15.4 13.5 14.3 93 0.6 NE 17 19 9 10 1012.7 1012.7 0.2
27/10:00am 15.7 13.4 14.2 91 0.9 NE 19 20 10 11 1012.9 1012.9 0.0
27/09:30am 15.7 13.4 14.2 91 0.9 NE 19 20 10 11 1012.9 1012.9 0.0
27/09:00am 15.9 14.8 14.4 91 0.9 NE 13 15 7 8 1012.9 1012.9 4.8
27/08:30am 15.6 13.7 14.3 92 0.7 NNE 17 20 9 11 1012.9 1012.9 4.8
27/08:00am 15.6 13.3 14.6 94 0.6 NNE 20 24 11 13 1012.8 1012.8 4.8
27/07:30am 15.6 13.0 14.8 95 0.5 NE 22 28 12 15 1012.5 1012.5 4.8
27/07:00am 15.3 11.0 14.5 95 0.5 NE 30 35 16 19 1012.3 1012.3 4.8
27/06:30am 14.9 9.6 14.1 95 0.5 NE 35 50 19 27 1012.1 1012.1 4.6
27/06:00am 14.8 9.7 13.8 94 0.6 NE 33 39 18 21 1012.2 1012.2 4.2
27/05:30am 14.8 11.2 14.2 96 0.3 NE 26 39 14 21 1012.1 1012.1 4.0
27/05:00am 14.6 13.8 14.0 96 0.3 NNE 11 13 6 7 1012.2 1012.2 3.8
27/04:30am 14.5 13.7 13.9 96 0.3 NNE 11 15 6 8 1012.2 1012.2 3.8
27/04:00am 14.3 15.4 13.5 95 0.4 CALM 0 7 0 4 1012.3 1012.3 3.8
27/03:30am 14.5 15.7 13.7 95 0.4 CALM 0 0 0 0 1012.2 1012.2 3.8
27/03:00am 14.1 15.1 13.3 95 0.4 CALM 0 4 0 2 1012.3 1012.3 3.8
27/02:30am 14.2 15.3 13.4 95 0.4 CALM 0 0 0 0 1012.7 1012.7 3.8
27/02:00am 14.1 15.1 13.3 95 0.4 CALM 0 0 0 0 1012.8 1012.8 3.8
27/01:30am 14.0 13.9 13.2 95 0.4 N 6 7 3 4 1013.2 1013.2 3.8
27/01:00am 14.2 13.9 13.4 95 0.4 NE 7 9 4 5 1013.4 1013.4 3.8
27/12:30am 14.3 13.3 13.5 95 0.4 NNE 11 13 6 7 1013.7 1013.7 3.6
27/12:00am 14.3 12.9 13.3 94 0.6 NNE 13 15 7 8 1013.8 1013.8 2.8
 
Date/Time
EST
Temp
°C
App
Temp
°C
Dew
Point
°C
Rel
Hum
%
Delta-T
°C
Wind Press
QNH
hPa
Press
MSL
hPa
Rain since
9am
mm
Dir  Spd
km/h
Gust
km/h
Spd
kts
Gust
kts
26/11:30pm 14.5 12.3 13.2 92 0.7 NNE 17 20 9 11 1014.1 1014.1 1.8
26/11:00pm 15.2 11.4 13.7 91 0.8 NE 26 32 14 17 1014.1 1014.1 1.6
26/10:30pm 15.1 10.9 13.5 90 0.9 NE 28 32 15 17 1014.2 1014.2 1.6
26/10:00pm 15.0 10.8 13.5 91 0.8 NE 28 30 15 16 1014.4 1014.4 1.4
26/09:30pm 14.8 11.4 13.7 93 0.6 NE 24 28 13 15 1014.7 1014.7 1.4
26/09:00pm 14.8 12.7 13.5 92 0.7 NE 17 20 9 11 1015.2 1015.2 1.0
26/08:30pm 15.0 12.2 13.2 89 1.0 NNE 20 22 11 12 1015.4 1015.4 0.2
26/08:00pm 15.1 12.3 13.1 88 1.1 NE 20 22 11 12 1015.3 1015.3 0.0
26/07:30pm 15.4 12.1 12.9 85 1.4 NE 22 26 12 14 1015.1 1015.1 0.0
26/07:00pm 15.3 11.6 12.6 84 1.5 NE 24 28 13 15 1014.6 1014.6 0.0
26/06:30pm 15.3 11.6 12.6 84 1.5 NE 24 26 13 14 1014.4 1014.4 0.0
26/06:00pm 15.3 11.1 12.4 83 1.6 NE 26 30 14 16 1014.2 1014.2 0.0
26/05:30pm 15.5 10.9 12.4 82 1.7 NE 28 33 15 18 1014.0 1014.0 0.0
26/05:00pm 15.6 11.0 12.4 81 1.8 NE 28 33 15 18 1013.9 1013.9 0.0
26/04:30pm 15.6 10.3 12.4 81 1.8 NE 32 35 17 19 1013.9 1013.9 0.0
26/04:00pm 15.8 10.9 12.4 80 1.9 NE 30 35 16 19 1013.9 1013.9 0.0
26/03:30pm 15.7 10.4 12.6 82 1.7 NE 32 35 17 19 1013.8 1013.8 0.0
26/03:00pm 16.0 10.7 12.6 80 1.9 NE 32 35 17 19 1014.0 1014.0 0.0
26/02:30pm 16.2 11.3 12.4 78 2.1 NE 30 35 16 19 1014.2 1014.2 0.0
26/02:00pm 16.4 11.8 12.4 77 2.2 NE 28 33 15 18 1014.5 1014.5 0.0
26/01:30pm 16.6 11.4 11.7 73 2.7 NE 30 32 16 17 1014.8 1014.8 0.0
26/01:00pm 16.5 12.0 11.4 72 2.8 NE 26 28 14 15 1015.2 1015.2 0.0
26/12:30pm 16.1 11.9 11.1 72 2.7 NE 24 26 13 14 1016.0 1016.0 0.0
26/12:00pm 16.6 12.8 11.3 71 2.9 NE 22 26 12 14 1016.4 1016.4 0.0
26/11:30am 16.4 13.1 11.6 73 2.6 ENE 20 24 11 13 1016.8 1016.8 0.0
26/11:00am 16.2 12.6 10.7 70 2.9 NE 20 24 11 13 1016.9 1016.9 0.0
26/10:30am 16.0 12.5 11.0 72 2.7 NE 20 22 11 12 1017.1 1017.1 0.0
26/10:00am 16.1 12.5 11.7 75 2.4 NE 22 26 12 14 1017.1 1017.1 0.0
26/09:30am 15.6 13.3 10.6 72 2.6 NE 13 19 7 10 1017.3 1017.3 0.0
26/09:00am 15.1 13.5 7.9 62 3.6 NE 6 9 3 5 1017.4 1017.4 0.2
26/08:30am 14.8 13.2 8.1 64 3.4 NE 6 7 3 4 1017.3 1017.3 0.2
26/08:00am 14.3 13.2 10.7 79 1.9 NW 7 11 4 6 1017.3 1017.3 0.2
26/07:30am 12.7 10.5 9.3 80 1.7 WNW 11 15 6 8 1017.5 1017.5 0.2
26/07:00am 12.1 10.0 9.7 85 1.2 WNW 11 13 6 7 1017.7 1017.7 0.2
26/06:30am 11.5 9.5 8.7 83 1.4 WNW 9 11 5 6 1017.5 1017.5 0.2
26/06:00am 10.9 8.6 9.0 88 0.9 NW 11 13 6 7 1017.1 1017.1 0.2
26/05:30am 11.1 8.8 9.0 87 1.0 WNW 11 13 6 7 1017.1 1017.1 0.2
26/05:00am 11.1 8.8 9.0 87 1.0 WNW 11 13 6 7 1017.1 1017.1 0.2
26/04:30am 11.5 9.3 9.4 87 1.1 WNW 11 13 6 7 1016.9 1016.9 0.2
26/04:00am 11.5 9.3 9.2 86 1.1 WNW 11 13 6 7 1017.0 1017.0 0.2
26/03:30am 11.7 9.9 9.4 86 1.2 W 9 11 5 6 1016.9 1016.9 0.2
26/03:00am 11.7 9.6 9.6 87 1.1 WNW 11 13 6 7 1017.1 1017.1 0.2
26/02:30am 11.5 9.4 9.6 88 1.0 NW 11 13 6 7 1017.2 1017.2 0.2
26/02:00am 11.5 9.3 9.4 87 1.1 WNW 11 13 6 7 1017.3 1017.3 0.2
26/01:30am 11.7 9.9 9.6 87 1.1 WNW 9 11 5 6 1017.4 1017.4 0.2
26/01:00am 11.7 10.3 9.4 86 1.2 WNW 7 9 4 5 1017.5 1017.5 0.2
26/12:30am 12.0 10.3 9.7 86 1.2 NW 9 11 5 6 1017.9 1017.9 0.2
26/12:00am 12.1 10.0 9.8 86 1.2 W 11 13 6 7 1018.1 1018.1 0.2
 
Date/Time
EST
Temp
°C
App
Temp
°C
Dew
Point
°C
Rel
Hum
%
Delta-T
°C
Wind Press
QNH
hPa
Press
MSL
hPa
Rain since
9am
mm
Dir  Spd
km/h
Gust
km/h
Spd
kts
Gust
kts
25/11:30pm 12.0 9.9 9.7 86 1.2 WNW 11 13 6 7 1018.2 1018.2 0.2
25/11:00pm 11.9 9.8 9.6 86 1.2 WNW 11 13 6 7 1018.2 1018.2 0.2
25/10:30pm 12.0 9.6 9.9 87 1.1 WNW 13 15 7 8 1018.3 1018.3 0.2
25/10:00pm 11.8 9.7 9.7 87 1.1 WNW 11 15 6 8 1018.0 1018.0 0.2
25/09:30pm 11.8 9.2 9.5 86 1.2 WNW 13 19 7 10 1017.9 1017.9 0.2
25/09:00pm 12.3 9.0 9.7 84 1.3 W 17 20 9 11 1017.7 1017.7 0.2
25/08:30pm 12.4 8.5 9.6 83 1.4 WSW 20 24 11 13 1017.6 1017.6 0.2
25/08:00pm 12.1 9.2 9.7 85 1.2 W 15 19 8 10 1017.7 1017.7 0.2
25/07:30pm 12.6 9.7 9.8 83 1.4 W 15 19 8 10 1017.3 1017.3 0.2
25/07:00pm 13.2 9.1 10.0 81 1.6 SW 22 30 12 16 1017.3 1017.3 0.2
25/06:30pm 13.5 9.1 10.3 81 1.7 SW 24 28 13 15 1016.9 1016.9 0.2
25/06:00pm 13.9 9.0 10.1 78 2.0 SW 26 30 14 16 1016.3 1016.3 0.2
25/05:30pm 14.0 8.9 10.6 80 1.8 SSW 28 33 15 18 1016.0 1016.0 0.2
25/05:00pm 13.8 8.0 10.8 82 1.6 SSW 32 35 17 19 1015.6 1015.6 0.2
25/04:30pm 13.8 7.9 10.4 80 1.8 SSW 32 35 17 19 1015.1 1015.1 0.2
25/04:00pm 14.0 7.2 9.4 74 2.4 SSW 35 39 19 21 1014.8 1014.8 0.2
25/03:30pm 14.2 8.3 10.4 78 2.0 SSW 32 39 17 21 1014.5 1014.5 0.2
25/03:00pm 14.6 8.5 10.4 76 2.2 SSW 33 39 18 21 1014.3 1014.3 0.2
25/02:30pm 14.2 8.0 10.0 76 2.2 SSW 33 37 18 20 1014.4 1014.4 0.2
25/02:00pm 13.9 7.7 10.1 78 2.0 SSW 33 37 18 20 1014.4 1014.4 0.2
25/01:30pm 13.9 6.9 10.1 78 2.0 SW 37 41 20 22 1014.7 1014.7 0.2
25/01:00pm 14.3 7.7 9.9 75 2.3 SSW 35 39 19 21 1014.8 1014.8 0.2
25/12:30pm 14.0 6.5 9.6 75 2.3 SSW 39 43 21 23 1015.0 1015.0 0.2
25/12:00pm 13.9 7.1 9.3 74 2.3 SSW 35 39 19 21 1015.0 1015.0 0.2
25/11:30am 14.0 6.8 9.0 72 2.5 SSW 37 41 20 22 1015.1 1015.1 0.2
25/11:00am 13.8 7.0 9.3 74 2.3 SSW 35 39 19 21 1015.3 1015.3 0.2

Other formats

Comma delimited format used in spreadsheet applications
http://www.bom.gov.au/fwo/IDV60801/IDV60801.94933.axf

JavaScript Object Notation format (JSON) in row-major order
http://www.bom.gov.au/fwo/IDV60801/IDV60801.94933.json

Data quality

Most of these data are generated automatically and are frequently updated. Quality checks on data are not normally performed. It is possible for incorrect values to appear. Refer to information at About Latest Weather Observations and please check the disclaimer before using these data.